createdAt,value
2019-01-18T04:15:45.363Z,1.93
2019-01-18T04:18:14.359Z,2.73
2019-01-18T04:20:43.267Z,2.17
2019-01-18T04:23:12.229Z,2.43
2019-01-18T04:25:41.479Z,2.90
2019-01-18T04:28:10.597Z,2.20
2019-01-18T04:30:39.804Z,2.70
2019-01-18T04:33:08.864Z,2.40
2019-01-18T04:35:38.129Z,2.33
2019-01-18T04:38:07.228Z,2.23
2019-01-18T04:40:36.202Z,2.57
2019-01-18T04:43:05.367Z,2.10
2019-01-18T04:45:34.439Z,3.13
2019-01-18T04:48:03.508Z,2.57
2019-01-18T04:50:32.582Z,2.00
2019-01-18T04:53:01.699Z,2.60
2019-01-18T04:55:30.765Z,2.07
2019-01-18T04:57:59.784Z,1.73
2019-01-18T05:00:30.508Z,2.00
2019-01-18T05:02:59.563Z,2.20
2019-01-18T05:05:28.691Z,2.50
2019-01-18T05:07:57.744Z,2.27
2019-01-18T05:10:28.203Z,4.13
2019-01-18T05:12:57.341Z,2.57
2019-01-18T05:15:28.623Z,2.73
2019-01-18T05:17:57.750Z,3.67
2019-01-18T05:20:26.846Z,2.77
2019-01-18T05:22:55.925Z,2.90
2019-01-18T05:25:24.910Z,2.27
2019-01-18T05:27:53.922Z,2.70
2019-01-18T05:30:25.235Z,2.30
2019-01-18T05:32:54.519Z,2.70
2019-01-18T05:35:24.013Z,2.40
2019-01-18T05:37:53.152Z,1.90
2019-01-18T05:40:24.074Z,2.40
2019-01-18T05:42:53.198Z,2.60
2019-01-18T05:45:22.451Z,2.90
2019-01-18T05:47:51.923Z,2.87
2019-01-18T05:50:25.795Z,2.40
2019-01-18T05:52:54.888Z,2.03
2019-01-18T05:55:24.015Z,2.60
2019-01-18T05:57:53.114Z,2.60
2019-01-18T06:00:33.251Z,2.70
2019-01-18T06:03:02.268Z,2.57
2019-01-18T06:05:32.099Z,2.57
2019-01-18T06:08:01.171Z,2.17
2019-01-18T06:10:30.289Z,2.30
2019-01-18T06:12:59.345Z,2.47
2019-01-18T06:15:28.336Z,2.43
2019-01-18T06:17:57.435Z,3.30
2019-01-18T06:20:26.514Z,2.40
2019-01-18T06:22:55.514Z,2.40
2019-01-18T06:25:24.593Z,2.50
2019-01-18T06:27:56.557Z,2.97
2019-01-18T06:30:25.735Z,2.00
2019-01-18T06:32:54.843Z,2.30
2019-01-18T06:35:25.367Z,2.30
2019-01-18T06:37:54.459Z,2.97
2019-01-18T06:40:23.628Z,2.53
2019-01-18T06:42:52.742Z,2.80
2019-01-18T06:45:22.299Z,2.90
2019-01-18T06:47:51.385Z,2.97
2019-01-18T06:50:20.755Z,2.47
2019-01-18T06:52:49.963Z,2.33
2019-01-18T06:55:19.072Z,2.80
2019-01-18T06:57:48.153Z,2.70
2019-01-18T07:00:20.456Z,2.50
2019-01-18T07:02:49.822Z,2.93
2019-01-18T07:05:18.895Z,2.80
2019-01-18T07:07:47.987Z,2.50
2019-01-18T07:10:20.983Z,1.93
2019-01-18T07:12:48.808Z,2.33
2019-01-18T07:15:18.212Z,2.33
2019-01-18T07:17:47.353Z,2.60
2019-01-18T07:20:17.130Z,2.60
2019-01-18T07:22:46.370Z,2.33
2019-01-18T07:25:23.645Z,2.60
2019-01-18T07:27:52.767Z,2.50
2019-01-18T07:30:24.362Z,1.70
2019-01-18T07:32:53.335Z,2.93
2019-01-18T07:35:22.405Z,1.87
2019-01-18T07:37:51.489Z,2.20
2019-01-18T07:40:20.464Z,2.73
2019-01-18T07:42:49.985Z,3.40
2019-01-18T07:45:21.714Z,3.23
2019-01-18T07:47:50.783Z,3.13
2019-01-18T07:50:20.372Z,2.37
2019-01-18T07:52:49.635Z,2.73
2019-01-18T07:55:18.864Z,2.77
2019-01-18T07:57:47.940Z,3.20
2019-01-18T08:00:19.550Z,2.50
2019-01-18T08:02:48.808Z,2.90
2019-01-18T08:05:18.007Z,3.00
2019-01-18T08:07:47.211Z,2.20
2019-01-18T08:10:17.630Z,2.33
2019-01-18T08:12:46.699Z,2.60
2019-01-18T08:15:21.255Z,2.60
2019-01-18T08:17:50.545Z,2.10
2019-01-18T08:20:21.518Z,1.70
2019-01-18T08:22:50.699Z,1.97
2019-01-18T08:25:20.105Z,2.40
2019-01-18T08:27:49.232Z,2.33
2019-01-18T08:30:25.803Z,2.20
2019-01-18T08:32:54.895Z,2.87
2019-01-18T08:35:24.688Z,2.00
2019-01-18T08:37:53.792Z,2.30
2019-01-18T08:40:39.682Z,2.23
2019-01-18T08:43:10.904Z,1.60
2019-01-18T08:45:45.160Z,2.03
2019-01-18T08:48:14.247Z,2.27
2019-01-18T08:50:43.551Z,1.77
2019-01-18T08:53:12.666Z,2.07
2019-01-18T08:55:41.738Z,1.83
2019-01-18T08:58:10.734Z,1.60
2019-01-18T09:00:39.797Z,2.20
2019-01-18T09:03:08.781Z,2.10
2019-01-18T09:05:37.771Z,2.30
2019-01-18T09:08:06.845Z,1.57
2019-01-18T09:10:35.971Z,2.00
2019-01-18T09:13:05.186Z,1.93
2019-01-18T09:15:34.298Z,1.87
2019-01-18T09:18:03.432Z,1.80
2019-01-18T09:20:32.506Z,2.70
2019-01-18T09:23:01.546Z,2.07
2019-01-18T09:25:30.598Z,2.77
2019-01-18T09:27:59.663Z,2.50
2019-01-18T09:30:32.530Z,2.70
2019-01-18T09:33:02.554Z,2.13
2019-01-18T09:35:31.750Z,2.67
2019-01-18T09:38:01.251Z,2.33
2019-01-18T09:40:31.963Z,2.90
2019-01-18T09:43:01.133Z,3.43
2019-01-18T09:45:30.132Z,2.50
2019-01-18T09:47:59.186Z,2.57
2019-01-18T09:50:29.927Z,2.43
2019-01-18T09:52:59.726Z,2.17
2019-01-18T09:55:28.790Z,2.23
2019-01-18T09:57:57.874Z,2.77
2019-01-18T10:00:29.375Z,3.20
2019-01-18T10:02:59.269Z,2.13
2019-01-18T10:05:28.466Z,2.57
2019-01-18T10:07:57.454Z,2.80
2019-01-18T10:10:26.533Z,2.30
2019-01-18T10:12:55.704Z,2.60
2019-01-18T10:15:30.759Z,3.30
2019-01-18T10:18:00.841Z,2.73
2019-01-18T10:20:30.121Z,2.53
2019-01-18T10:22:59.238Z,3.10
2019-01-18T10:25:28.373Z,2.23
2019-01-18T10:27:57.480Z,2.10
2019-01-18T10:30:27.071Z,2.50
2019-01-18T10:32:56.160Z,2.40
2019-01-18T10:35:25.427Z,2.43
2019-01-18T10:37:54.441Z,2.50
2019-01-18T10:40:23.639Z,2.20
2019-01-18T10:42:53.011Z,2.70
2019-01-18T10:45:23.445Z,2.50
2019-01-18T10:47:53.193Z,2.00
2019-01-18T10:50:24.656Z,2.80
2019-01-18T10:52:53.754Z,3.03
2019-01-18T10:55:22.924Z,2.90
2019-01-18T10:57:52.418Z,3.37
2019-01-18T11:00:26.947Z,3.30
2019-01-18T11:02:56.519Z,3.17
2019-01-18T11:05:25.919Z,2.70
2019-01-18T11:07:55.054Z,3.43
2019-01-18T11:10:24.248Z,3.00
2019-01-18T11:12:53.304Z,2.90
2019-01-18T11:15:25.042Z,3.20
2019-01-18T11:17:54.323Z,3.70
2019-01-18T11:20:26.300Z,3.10
2019-01-18T11:22:56.607Z,2.80
2019-01-18T11:25:31.579Z,4.00
2019-01-18T11:27:56.391Z,3.30
2019-01-18T11:30:25.476Z,3.53
2019-01-18T11:32:54.547Z,3.07
2019-01-18T11:35:23.655Z,3.07
2019-01-18T11:37:52.988Z,2.60
2019-01-18T11:40:22.678Z,2.73
2019-01-18T11:42:51.960Z,2.53
2019-01-18T11:45:20.959Z,2.60
2019-01-18T11:47:50.054Z,3.10
2019-01-18T11:50:23.442Z,2.47
2019-01-18T11:52:52.518Z,2.73
2019-01-18T11:55:21.527Z,3.00
2019-01-18T11:57:50.601Z,2.37
2019-01-18T12:00:21.927Z,1.77
2019-01-18T12:02:51.171Z,2.53
2019-01-18T12:05:20.465Z,2.90
2019-01-18T12:07:49.802Z,2.03
2019-01-18T12:10:20.968Z,2.00
2019-01-18T12:12:50.083Z,2.67
2019-01-18T12:15:19.171Z,1.97
2019-01-18T12:17:48.183Z,1.70
2019-01-18T12:20:22.694Z,2.57
2019-01-18T12:22:51.786Z,2.53
2019-01-18T12:25:20.847Z,2.30
2019-01-18T12:27:49.858Z,1.57
2019-01-18T12:30:21.146Z,2.00
2019-01-18T12:32:50.074Z,1.77
2019-01-18T12:35:19.062Z,2.27
2019-01-18T12:37:48.135Z,1.90
2019-01-18T12:40:17.630Z,1.60
2019-01-18T12:42:46.626Z,1.43
2019-01-18T12:45:17.802Z,1.60
2019-01-18T12:47:46.811Z,2.10
2019-01-18T12:50:19.256Z,1.33
2019-01-18T12:52:48.465Z,1.30
2019-01-18T12:55:17.460Z,1.23
2019-01-18T12:57:46.543Z,1.20
2019-01-18T13:00:17.509Z,1.50
2019-01-18T13:02:46.591Z,1.13
2019-01-18T13:05:18.455Z,1.33
2019-01-18T13:07:47.604Z,1.60
2019-01-18T13:10:16.745Z,1.73
2019-01-18T13:12:45.835Z,1.40
2019-01-18T13:15:18.411Z,1.80
2019-01-18T13:17:47.467Z,1.83
2019-01-18T13:20:16.538Z,1.83
2019-01-18T13:22:45.608Z,2.03
2019-01-18T13:25:14.777Z,1.80
2019-01-18T13:27:44.087Z,1.90
2019-01-18T13:30:15.041Z,2.03
2019-01-18T13:32:44.224Z,2.63
2019-01-18T13:35:13.317Z,2.70
2019-01-18T13:37:42.382Z,2.47
2019-01-18T13:40:14.483Z,2.87
2019-01-18T13:42:43.559Z,2.67
2019-01-18T13:45:13.065Z,2.23
2019-01-18T13:47:42.366Z,2.60
2019-01-18T13:50:13.955Z,2.40
2019-01-18T13:52:43.154Z,2.13
2019-01-18T13:55:15.444Z,2.70
2019-01-18T13:57:44.651Z,2.67
2019-01-18T14:00:14.119Z,2.33
2019-01-18T14:02:48.430Z,2.30
2019-01-18T14:05:14.018Z,2.27
2019-01-18T14:07:43.358Z,3.07
2019-01-18T14:10:15.917Z,2.43
2019-01-18T14:12:44.957Z,2.53
2019-01-18T14:15:16.134Z,2.57
2019-01-18T14:17:45.167Z,2.90
2019-01-18T14:20:14.524Z,2.83
2019-01-18T14:22:43.690Z,2.17
2019-01-18T14:25:13.136Z,2.47
2019-01-18T14:27:42.271Z,2.40
2019-01-18T14:30:19.994Z,2.37
2019-01-18T14:32:55.142Z,2.60
2019-01-18T14:35:19.870Z,2.47
2019-01-18T14:37:48.957Z,2.40
2019-01-18T14:40:18.117Z,2.43
2019-01-18T14:42:47.210Z,2.93
2019-01-18T14:45:25.162Z,2.80
2019-01-18T14:47:54.169Z,2.37
2019-01-18T14:50:23.342Z,3.00
2019-01-18T14:52:52.407Z,2.80
2019-01-18T14:55:21.575Z,2.97
2019-01-18T14:57:50.665Z,2.10
2019-01-18T15:00:25.206Z,2.57
2019-01-18T15:02:54.267Z,2.67
2019-01-18T15:05:23.415Z,3.20
2019-01-18T15:07:52.391Z,2.37
2019-01-18T15:10:22.090Z,3.80
2019-01-18T15:12:57.217Z,2.70
2019-01-18T15:15:26.278Z,2.37
2019-01-18T15:17:55.337Z,2.70
2019-01-18T15:20:26.471Z,2.63
2019-01-18T15:22:55.557Z,3.23
2019-01-18T15:25:24.631Z,2.90
2019-01-18T15:27:53.657Z,2.60
2019-01-18T15:30:27.298Z,4.70
2019-01-18T15:32:56.441Z,3.60
2019-01-18T15:35:27.830Z,4.03
2019-01-18T15:37:57.007Z,4.60
2019-01-18T15:40:27.199Z,3.27
2019-01-18T15:42:58.098Z,3.33
2019-01-18T15:45:27.170Z,3.63
2019-01-18T15:47:56.244Z,3.27
2019-01-18T15:50:27.425Z,4.20
2019-01-18T15:52:56.606Z,4.03
2019-01-18T15:55:25.675Z,4.00
2019-01-18T15:57:54.906Z,4.03
2019-01-18T16:00:26.865Z,3.30
2019-01-18T16:02:56.151Z,3.47
2019-01-18T16:05:25.223Z,3.10
2019-01-18T16:07:54.570Z,2.93
2019-01-18T16:10:25.093Z,3.67
2019-01-18T16:12:54.515Z,3.17
2019-01-18T16:15:26.314Z,3.30
2019-01-18T16:17:55.402Z,3.40
2019-01-18T16:20:24.422Z,3.63
2019-01-18T16:22:53.739Z,3.10
2019-01-18T16:25:27.851Z,3.80
2019-01-18T16:27:57.105Z,3.80
2019-01-18T16:30:26.807Z,4.03
2019-01-18T16:32:56.336Z,3.37
2019-01-18T16:35:25.873Z,3.47
2019-01-18T16:37:54.962Z,3.97
2019-01-18T16:40:29.637Z,4.27
2019-01-18T16:43:02.223Z,4.63
2019-01-18T16:45:31.206Z,4.63
2019-01-18T16:48:00.307Z,4.50
2019-01-18T16:50:29.413Z,4.77
2019-01-18T16:52:58.527Z,4.77
2019-01-18T16:55:27.557Z,5.57
2019-01-18T16:57:56.654Z,6.13
2019-01-18T17:00:29.163Z,5.80
2019-01-18T17:02:58.255Z,5.17
2019-01-18T17:05:27.427Z,6.70
2019-01-18T17:07:56.534Z,7.00
2019-01-18T17:10:25.671Z,6.10
2019-01-18T17:12:54.855Z,5.57
2019-01-18T17:15:23.923Z,5.90
2019-01-18T17:17:53.053Z,5.60
2019-01-18T17:20:24.327Z,4.37
2019-01-18T17:22:53.491Z,5.50
2019-01-18T17:25:22.695Z,5.10
2019-01-18T17:27:51.773Z,4.33
2019-01-18T17:30:21.530Z,4.50
2019-01-18T17:32:51.448Z,4.77
2019-01-18T17:35:24.111Z,4.67
2019-01-18T17:38:08.836Z,4.93
2019-01-18T17:40:46.471Z,4.00
2019-01-18T17:43:47.727Z,4.30
2019-01-18T17:46:42.867Z,4.70
2019-01-18T17:49:27.742Z,4.10
2019-01-18T17:52:42.921Z,4.37
2019-01-18T17:55:48.685Z,3.90
2019-01-18T17:59:05.942Z,4.10
2019-01-18T18:02:06.899Z,3.77
2019-01-18T18:05:20.294Z,4.83
2019-01-18T18:08:35.258Z,4.30
2019-01-18T18:11:20.207Z,4.50
2019-01-18T18:14:38.435Z,4.50
2019-01-18T18:17:25.249Z,4.23
2019-01-18T18:20:36.974Z,4.27
2019-01-18T18:23:54.958Z,5.10
2019-01-18T18:26:59.466Z,5.50
2019-01-18T18:30:16.178Z,5.80
2019-01-18T18:32:58.449Z,6.20
2019-01-18T18:36:12.849Z,6.27
2019-01-18T18:39:18.647Z,5.60
2019-01-18T18:42:30.588Z,6.50
2019-01-18T18:45:29.707Z,6.10
2019-01-18T18:48:24.484Z,7.70
2019-01-18T18:51:52.710Z,7.33
2019-01-18T18:54:57.586Z,6.53
2019-01-18T18:58:22.644Z,6.67
2019-01-18T19:01:21.098Z,7.13
2019-01-18T19:04:31.309Z,7.17
2019-01-18T19:07:37.845Z,7.70
2019-01-18T19:10:31.564Z,6.37
2019-01-18T19:13:29.374Z,7.90
2019-01-18T19:16:14.175Z,6.87
2019-01-18T19:19:07.987Z,6.83
2019-01-18T19:22:25.880Z,7.30
2019-01-18T19:25:40.982Z,7.30
2019-01-18T19:29:01.597Z,7.57
2019-01-18T19:32:02.158Z,7.20
2019-01-18T19:35:16.786Z,7.70
2019-01-18T19:38:25.548Z,6.80
2019-01-18T19:41:10.189Z,8.60
2019-01-18T19:44:02.713Z,7.13
2019-01-18T19:46:55.532Z,8.30
2019-01-18T19:50:11.671Z,7.23
2019-01-18T19:53:17.252Z,8.57
2019-01-18T19:55:57.778Z,7.30
2019-01-18T19:59:27.121Z,6.93
2019-01-18T20:02:18.617Z,6.77
2019-01-18T20:05:19.767Z,6.57
2019-01-18T20:08:27.500Z,7.47
2019-01-18T20:11:43.542Z,6.80
2019-01-18T20:14:55.539Z,5.20
2019-01-18T20:17:38.809Z,6.57
2019-01-18T20:21:03.868Z,6.00
2019-01-18T20:24:35.374Z,5.73
2019-01-18T20:27:37.081Z,5.50
2019-01-18T20:30:56.125Z,6.57
2019-01-18T20:34:00.563Z,7.30
2019-01-18T20:36:52.535Z,6.67
2019-01-18T20:39:38.316Z,6.47
2019-01-18T20:42:45.517Z,5.43
2019-01-18T20:45:54.412Z,6.03
2019-01-18T20:49:05.139Z,6.10
2019-01-18T20:52:16.755Z,5.23
2019-01-18T20:55:32.768Z,5.57
2019-01-18T20:58:34.796Z,6.40
2019-01-18T21:01:31.699Z,7.77
2019-01-18T21:04:47.558Z,6.33
2019-01-18T21:07:28.616Z,7.33
2019-01-18T21:10:39.075Z,7.17
2019-01-18T21:13:46.888Z,7.20
2019-01-18T21:16:53.935Z,7.10
2019-01-18T21:19:46.856Z,7.00
2019-01-18T21:22:49.949Z,7.93
2019-01-18T21:25:57.118Z,7.30
2019-01-18T21:28:42.938Z,8.60
2019-01-18T21:31:49.051Z,7.67
2019-01-18T21:34:40.079Z,8.83
2019-01-18T21:37:54.675Z,8.87
2019-01-18T21:40:40.407Z,9.13
2019-01-18T21:43:50.258Z,9.27
2019-01-18T21:47:01.415Z,9.87
2019-01-18T21:50:16.271Z,10.10
2019-01-18T21:53:05.810Z,11.03
2019-01-18T21:56:02.532Z,10.50
2019-01-18T21:59:11.622Z,11.10
2019-01-18T22:02:06.688Z,10.07
2019-01-18T22:04:40.864Z,10.63
2019-01-18T22:07:35.947Z,11.50
2019-01-18T22:10:29.729Z,10.47
2019-01-18T22:13:19.418Z,13.47
2019-01-18T22:16:05.984Z,12.63
2019-01-18T22:19:16.690Z,12.93
2019-01-18T22:22:39.100Z,12.43
2019-01-18T22:25:34.285Z,11.93
2019-01-18T22:28:32.683Z,13.33
2019-01-18T22:31:22.135Z,11.73
2019-01-18T22:34:15.347Z,12.33
2019-01-18T22:37:30.594Z,12.10
2019-01-18T22:40:31.481Z,13.10
2019-01-18T22:43:59.913Z,10.77
2019-01-18T22:47:17.042Z,9.90
2019-01-18T22:50:16.405Z,9.87
2019-01-18T22:53:29.802Z,11.87
2019-01-18T22:56:13.466Z,10.37
2019-01-18T22:59:18.443Z,10.90
